Terminal Aerodrome Forecast
Issued by NWS Central Illinois

Home | Current Version | Previous Version | Text Only | Print | Product List | Glossary On
Versions: 1 2 3 4 5 6 7 8 9 10 11 12 13 14 15 16 17 18 19 20 21 22 23 24 25 26 27 28
000
FTUS43 KILX 060641 AAA
TAFPIA
TAF AMD
KPIA 060641Z 0607/0706 06006KT 2SM BR SCT120
     FM061400 19010KT 6SM HZ SCT250
     FM061700 18012G20KT P6SM SCT250
     FM070000 17006KT P6SM SCT250=

USA.gov is the U.S. government's official web portal to all federal, state and local government web resources and services.